Littlerock, California
Current Conditions -  °F | °C
As of 1:53 AM on Sunday 23 Nov 2014 (Local Time) from KPMD Reporting Station
Clear Clear  
Wind Chill: 53°   Ceiling: Unl
Heat Index: 53°   Visibility: 10mi
Dew Point: 41°   Wind: 18mph
Humidity: 64%   Direction: 280°W
Pressure: 30.13"   Gusts: NA
Location:  34.52°N, 117.99°W
Report Text: KPMD 230953Z AUTO 28016KT 10SM CLR 12/05 A3013 RMK AO2 PK WND 27030/0908 SLP190 T01170050
Loading
Personal Weather Stations






























Interactive Weather Map New forecast layout! Learn more

10-Day Weather Forecast

Advertisements
Track Severe Weather on mobile